createdAt,value
2019-02-07T00:04:39.204Z,45.03
2019-02-07T00:09:40.909Z,35.57
2019-02-07T00:14:42.699Z,33.50
2019-02-07T00:19:44.501Z,30.53
2019-02-07T00:24:46.826Z,33.70
2019-02-07T00:29:48.610Z,37.00
2019-02-07T00:34:50.409Z,36.40
2019-02-07T00:39:52.150Z,38.70
2019-02-07T00:44:54.011Z,33.57
2019-02-07T00:49:56.317Z,32.07
2019-02-07T00:54:58.027Z,75.67
2019-02-07T00:59:59.805Z,27.67
2019-02-07T01:05:01.592Z,125.37
2019-02-07T01:10:06.978Z,49.40
2019-02-07T01:15:11.171Z,55.83
2019-02-07T01:20:14.921Z,35.73
2019-02-07T01:25:19.812Z,37.70
2019-02-07T01:30:24.262Z,132.17
2019-02-07T01:35:26.662Z,41.80
2019-02-07T01:40:28.860Z,101.43
2019-02-07T01:45:30.758Z,37.53
2019-02-07T01:50:32.484Z,40.80
2019-02-07T01:55:34.206Z,28.67
2019-02-07T02:00:35.911Z,40.17
2019-02-07T02:05:38.189Z,40.97
2019-02-07T02:10:39.949Z,36.53
2019-02-07T02:15:41.831Z,32.67
2019-02-07T02:20:44.123Z,35.87
2019-02-07T02:25:45.995Z,37.67
2019-02-07T02:30:47.778Z,33.60
2019-02-07T02:35:49.535Z,19.17
2019-02-07T02:40:51.253Z,31.37
2019-02-07T02:45:52.873Z,35.20
2019-02-07T02:50:54.650Z,29.97
2019-02-07T02:55:56.801Z,33.93
2019-02-07T03:01:13.594Z,30.70
2019-02-07T03:06:17.564Z,30.17
2019-02-07T03:11:33.716Z,30.13
2019-02-07T03:16:54.329Z,32.30
2019-02-07T03:22:17.226Z,25.27
2019-02-07T03:27:33.330Z,42.57
2019-02-07T03:32:39.912Z,31.43
2019-02-07T03:37:43.429Z,33.70
2019-02-07T03:42:52.880Z,32.47
2019-02-07T03:48:02.729Z,20.23
2019-02-07T03:53:18.536Z,20.43
2019-02-07T03:58:22.010Z,18.63
2019-02-07T04:03:34.918Z,18.80
2019-02-07T04:08:50.960Z,21.50
2019-02-07T04:13:57.814Z,22.10
2019-02-07T04:19:01.488Z,14.37
2019-02-07T04:24:22.150Z,17.20
2019-02-07T04:29:31.885Z,16.03
2019-02-07T04:34:51.250Z,13.97
2019-02-07T04:40:03.754Z,20.67
2019-02-07T04:45:24.933Z,25.20
2019-02-07T04:50:41.015Z,18.07
2019-02-07T04:56:01.531Z,21.60
2019-02-07T05:01:13.958Z,22.27
2019-02-07T05:06:26.588Z,15.37
2019-02-07T05:11:33.579Z,26.67
2019-02-07T05:16:43.578Z,20.67
2019-02-07T05:21:57.506Z,21.47
2019-02-07T05:27:10.958Z,24.03
2019-02-07T05:32:14.574Z,26.10
2019-02-07T05:37:21.161Z,22.83
2019-02-07T05:42:28.182Z,21.83
2019-02-07T05:47:41.577Z,24.60
2019-02-07T05:52:46.368Z,14.07
2019-02-07T05:58:08.524Z,20.67
2019-02-07T06:03:12.864Z,22.30
2019-02-07T06:08:16.379Z,21.00
2019-02-07T06:13:35.269Z,28.10
2019-02-07T06:18:44.982Z,21.40
2019-02-07T06:23:49.112Z,23.50
2019-02-07T06:28:59.034Z,20.17
2019-02-07T06:34:02.593Z,28.97
2019-02-07T06:39:15.963Z,20.67
2019-02-07T06:44:35.542Z,23.00
2019-02-07T06:49:39.065Z,28.80
2019-02-07T06:54:48.390Z,28.57
2019-02-07T07:00:01.382Z,32.50
2019-02-07T07:05:10.523Z,26.60
2019-02-07T07:10:30.982Z,38.60
2019-02-07T07:15:40.243Z,22.87
2019-02-07T07:20:43.906Z,27.53
2019-02-07T07:25:50.625Z,22.03
2019-02-07T07:30:54.513Z,36.83
2019-02-07T07:36:14.845Z,45.10
2019-02-07T07:41:36.988Z,38.53
2019-02-07T07:46:57.895Z,53.17
2019-02-07T07:52:18.233Z,39.30
2019-02-07T07:57:39.289Z,27.47
2019-02-07T08:02:52.318Z,38.70
2019-02-07T08:07:56.254Z,47.27
2019-02-07T08:13:06.667Z,32.30
2019-02-07T08:18:10.246Z,30.07
2019-02-07T08:23:19.850Z,32.63
2019-02-07T08:28:23.389Z,31.50
2019-02-07T08:33:33.155Z,32.50
2019-02-07T08:38:53.531Z,40.30
2019-02-07T08:44:06.609Z,41.47
2019-02-07T08:49:27.458Z,37.83
2019-02-07T08:54:47.606Z,28.20
2019-02-07T08:59:57.480Z,35.57
2019-02-07T09:05:18.049Z,23.10
2019-02-07T09:10:30.685Z,28.03
2019-02-07T09:15:50.885Z,25.17
2019-02-07T09:21:09.564Z,23.77
2019-02-07T09:26:25.664Z,26.03
2019-02-07T09:31:55.975Z,24.33
2019-02-07T09:37:06.271Z,18.53
2019-02-07T09:42:12.130Z,26.83
2019-02-07T09:47:39.535Z,20.77
2019-02-07T09:52:46.095Z,17.73
2019-02-07T09:57:52.601Z,25.17
2019-02-07T10:02:59.729Z,21.03
2019-02-07T10:08:03.776Z,18.93
2019-02-07T10:13:13.494Z,26.47
2019-02-07T10:18:33.874Z,25.23
2019-02-07T10:23:37.862Z,24.73
2019-02-07T10:28:41.405Z,15.67
2019-02-07T10:33:53.974Z,26.27
2019-02-07T10:39:00.899Z,19.57
2019-02-07T10:44:10.820Z,15.27
2019-02-07T10:49:15.355Z,14.53
2019-02-07T10:54:19.588Z,21.13
2019-02-07T10:59:41.091Z,19.30
2019-02-07T11:04:47.407Z,20.97
2019-02-07T11:10:04.437Z,30.33
2019-02-07T11:15:27.688Z,28.67
2019-02-07T11:20:48.049Z,19.67
2019-02-07T11:26:04.480Z,22.90
2019-02-07T11:31:08.015Z,28.50
2019-02-07T11:36:28.165Z,23.67
2019-02-07T11:41:32.509Z,23.90
2019-02-07T11:46:49.027Z,21.00
2019-02-07T11:52:05.841Z,23.10
2019-02-07T11:57:26.353Z,15.60
2019-02-07T12:02:36.136Z,30.80
2019-02-07T12:07:40.078Z,24.47
2019-02-07T12:12:43.593Z,42.00
2019-02-07T12:23:02.666Z,31.53
2019-02-07T12:28:15.551Z,22.90
2019-02-07T12:33:22.110Z,20.10
2019-02-07T12:38:26.015Z,30.70
2019-02-07T12:43:38.675Z,31.27
2019-02-07T12:48:51.439Z,37.77
2019-02-07T12:54:12.013Z,30.90
2019-02-07T12:59:15.653Z,20.23
2019-02-07T13:04:36.188Z,20.03
2019-02-07T13:09:58.258Z,27.30
2019-02-07T13:15:05.400Z,28.40
2019-02-07T13:20:12.936Z,18.40
2019-02-07T13:25:17.163Z,42.10
2019-02-07T13:30:20.801Z,19.93
2019-02-07T13:35:33.048Z,27.53
2019-02-07T13:40:38.884Z,25.77
2019-02-07T13:45:53.159Z,22.03
2019-02-07T13:50:59.726Z,14.10
2019-02-07T13:56:17.230Z,22.23
2019-02-07T14:01:24.382Z,28.83
2019-02-07T14:06:40.250Z,24.03
2019-02-07T14:11:59.087Z,23.57
2019-02-07T14:17:05.800Z,25.87
2019-02-07T14:22:25.380Z,8.50
2019-02-07T14:27:36.636Z,27.07
2019-02-07T14:32:44.258Z,26.63
2019-02-07T14:38:00.533Z,17.50
2019-02-07T14:43:19.731Z,14.53
2019-02-07T14:48:23.232Z,15.87
2019-02-07T14:53:25.363Z,30.80
2019-02-07T14:58:27.223Z,26.77
2019-02-07T15:03:29.522Z,17.33
2019-02-07T15:08:31.411Z,22.90
2019-02-07T15:13:33.193Z,27.30
2019-02-07T15:18:37.537Z,18.13
2019-02-07T15:23:39.387Z,22.50
2019-02-07T15:28:41.784Z,21.53
2019-02-07T15:33:44.002Z,11.07
2019-02-07T15:38:45.896Z,7.83
2019-02-07T15:43:47.769Z,31.03
2019-02-07T15:48:49.894Z,21.50
2019-02-07T15:53:51.852Z,12.63
2019-02-07T15:59:01.765Z,22.80
2019-02-07T16:04:06.064Z,30.17
2019-02-07T16:09:08.754Z,11.63
2019-02-07T16:14:10.656Z,24.27
2019-02-07T16:19:13.280Z,22.17
2019-02-07T16:24:16.049Z,16.73
2019-02-07T16:34:21.432Z,18.63
2019-02-07T16:39:23.384Z,21.27
2019-02-07T16:44:25.312Z,19.30
2019-02-07T16:49:28.544Z,12.90
2019-02-07T16:54:32.283Z,14.23
2019-02-07T16:59:34.455Z,18.73
2019-02-07T17:04:36.368Z,18.87
2019-02-07T17:09:39.602Z,20.00
2019-02-07T17:14:41.912Z,16.70
2019-02-07T17:19:45.508Z,13.30
2019-02-07T17:24:47.747Z,16.27
2019-02-07T17:29:49.688Z,24.83
2019-02-07T17:34:51.626Z,25.73
2019-02-07T17:40:02.895Z,26.20
2019-02-07T17:45:17.808Z,40.63
2019-02-07T17:50:25.818Z,10.90
2019-02-07T17:55:28.005Z,30.60
2019-02-07T18:00:40.772Z,19.90
2019-02-07T18:05:43.069Z,23.57
2019-02-07T18:10:48.243Z,29.43
2019-02-07T18:15:50.473Z,21.50
2019-02-07T18:20:52.927Z,31.33
2019-02-07T18:25:55.284Z,23.83
2019-02-07T18:30:57.711Z,17.40
2019-02-07T18:35:59.647Z,21.57
2019-02-07T18:41:01.946Z,28.10
2019-02-07T18:46:07.767Z,22.80
2019-02-07T18:51:12.481Z,40.23
2019-02-07T18:56:14.392Z,34.90
2019-02-07T19:01:19.776Z,21.30
2019-02-07T19:06:22.605Z,30.83
2019-02-07T19:11:25.114Z,19.87
2019-02-07T19:16:27.631Z,34.50
2019-02-07T19:21:32.062Z,24.13
2019-02-07T19:26:34.784Z,44.97
2019-02-07T19:31:37.039Z,28.43
2019-02-07T19:36:39.625Z,21.50
2019-02-07T19:41:41.505Z,43.67
2019-02-07T19:46:54.591Z,33.83
2019-02-07T19:52:07.908Z,32.90
2019-02-07T19:57:05.285Z,26.10
2019-02-07T20:07:10.673Z,53.23
2019-02-07T20:17:15.690Z,63.27
2019-02-07T20:22:20.499Z,64.30
2019-02-07T20:27:22.995Z,50.50
2019-02-07T20:32:25.039Z,75.47
2019-02-07T20:37:27.286Z,65.03
2019-02-07T20:42:29.246Z,75.33
2019-02-07T20:52:34.726Z,80.57
2019-02-07T21:02:39.936Z,92.10
2019-02-07T21:07:41.849Z,61.13
2019-02-07T21:12:45.925Z,74.20
2019-02-07T21:17:48.267Z,65.20
2019-02-07T21:22:51.193Z,85.87
2019-02-07T21:27:53.200Z,84.03
2019-02-07T21:32:57.245Z,63.03
2019-02-07T21:37:59.597Z,80.27
2019-02-07T21:43:02.357Z,79.57
2019-02-07T21:48:06.939Z,72.67
2019-02-07T21:53:08.925Z,75.10
2019-02-07T21:58:12.137Z,83.87
2019-02-07T22:03:14.161Z,45.07
2019-02-07T22:08:21.111Z,61.37
2019-02-07T22:13:22.817Z,78.23
2019-02-07T22:18:24.635Z,90.83
2019-02-07T22:23:26.435Z,67.53
2019-02-07T22:28:28.336Z,78.20
2019-02-07T22:33:30.483Z,73.30
2019-02-07T22:38:34.857Z,81.77
2019-02-07T22:43:36.820Z,107.33
2019-02-07T22:49:34.242Z,89.90
2019-02-07T22:54:36.438Z,96.50
2019-02-07T23:00:21.579Z,62.17
2019-02-07T23:05:23.991Z,86.93
2019-02-07T23:11:06.051Z,89.57
2019-02-07T23:16:08.255Z,78.60
2019-02-07T23:21:54.217Z,75.23
2019-02-07T23:26:56.327Z,75.63
2019-02-07T23:31:58.024Z,68.97
2019-02-07T23:37:00.238Z,74.77
2019-02-07T23:42:02.365Z,65.20
2019-02-07T23:47:04.840Z,61.13
2019-02-07T23:52:06.546Z,82.97
2019-02-07T23:57:08.457Z,63.90
